Cercedilla, Spain
Current Conditions -  °F | °C
As of 9:00 PM on Monday 26 Jan 2015 (Local Time) from LEVS Reporting Station
Clear Clear  
Wind Chill: 46°   Ceiling: Unl
Heat Index: 46°   Visibility: 6mi
Dew Point: 30°   Wind: 0mph
Humidity: 53%   Direction: NA
Pressure: 30.36"   Gusts: NA
Location:  40.74°N, 4.06°W
Report Text: LEVS 262000Z 00000KT CAVOK 08/M01 Q1028
Loading
Personal Weather Stations






























Interactive Weather Map New forecast layout! Learn more

10-Day Weather Forecast

Advertisements
Track Severe Weather on mobile